Latest Weather Observations for Thredbo Top Station

IDN60901

Issued at 11:41 pm EST Monday 26 June 2017 (issued every 10 minutes, with the page automatically refreshed every 10 minutes)

About weather observations | Map of Canberra area stations | Latest observations for Canberra area | Other Formats
Station Details ID: 071032 Name: THREDBO AWS Lat: -36.49 Lon: 148.29 Height: 1957.0 m
Data from the previous 72 hours. | See also: Recent months at Thredbo Top Station
Date/Time
EST
Temp
°C
App
Temp
°C
Dew
Point
°C
Rel
Hum
%
Delta-T
°C
Wind Press
QNH
hPa
Press
MSL
hPa
Rain since
9am
mm
Dir  Spd
km/h
Gust
km/h
Spd
kts
Gust
kts
26/11:30pm -7.1 -11.5 -12.9 63 1.3 NNW 6 9 3 5 1023.5 1026.0 0.0
26/11:00pm -7.1 -10.7 -12.5 65 1.2 NNW 2 6 1 3 1023.7 1026.2 0.0
26/10:30pm -6.1 -10.0 -11.8 64 1.4 NW 4 7 2 4 1023.7 1026.2 0.0
26/10:00pm -7.1 -11.5 -12.4 66 1.2 NW 6 9 3 5 1023.6 1026.1 0.0
26/09:30pm -5.9 -9.8 -11.2 66 1.3 WNW 4 9 2 5 1023.6 1026.1 0.0
26/09:00pm -7.2 -12.5 -11.9 69 1.0 NW 11 15 6 8 1023.4 1025.9 0.0
26/08:30pm -5.7 -11.2 -9.2 76 0.8 NW 13 17 7 9 1023.4 1025.9 0.0
26/08:00pm -5.0 -10.3 -6.8 87 0.4 NNW 13 17 7 9 1023.4 1025.9 0.0
26/07:30pm -5.4 -11.1 -7.4 86 0.4 NNW 15 19 8 10 1023.3 1025.7 0.0
26/07:00pm -5.5 -10.4 -7.6 85 0.4 NW 11 13 6 7 1023.0 1025.5 0.0
26/06:30pm -6.3 -10.9 -8.5 84 0.4 NW 9 11 5 6 1022.7 1025.1 0.0
26/06:00pm -5.9 -8.8 -8.3 83 0.5 CALM 0 2 0 1 1022.4 1024.8 0.0
26/05:30pm -5.6 -9.7 -8.3 81 0.6 NW 6 9 3 5 1022.0 1024.5 0.0
26/05:00pm -5.3 -8.9 -7.7 83 0.5 NW 4 7 2 4 1021.7 1024.1 0.0
26/04:30pm -3.6 -7.5 -6.2 82 0.7 NW 6 9 3 5 1021.4 1023.8 0.0
26/04:00pm -1.9 -6.1 -4.1 85 0.7 WNW 9 17 5 9 1021.3 1023.7 0.0
26/03:30pm -1.6 -6.9 -3.5 87 0.6 W 15 24 8 13 1021.3 1023.7 0.0
26/03:00pm -1.7 -5.6 -4.2 83 0.8 WSW 7 15 4 8 1021.1 1023.5 0.0
26/02:30pm -1.4 -7.4 -3.0 89 0.5 W 19 28 10 15 1020.7 1023.1 0.0
26/02:00pm -1.6 -8.6 -3.5 87 0.6 WNW 24 28 13 15 1020.2 1022.6 0.0
26/01:30pm -1.5 -7.1 -3.2 88 0.6 W 17 24 9 13 1020.5 1022.8 0.0
26/01:00pm -1.8 -8.0 -3.5 88 0.5 W 20 33 11 18 1020.5 1022.8 0.0
26/12:30pm -1.5 -7.7 -2.8 91 0.4 WNW 20 30 11 16 1020.4 1022.7 0.0
26/12:00pm -1.5 -7.7 -2.8 91 0.4 WNW 20 30 11 16 1020.6 1022.9 0.0
26/11:30am -1.9 -9.6 -3.2 91 0.4 WNW 28 37 15 20 1020.4 1022.7 0.0
26/11:00am -2.3 -10.4 -3.4 92 0.3 NW 30 39 16 21 1020.5 1022.8 0.0
26/10:30am -2.3 -10.8 -3.4 92 0.3 WNW 32 39 17 21 1020.2 1022.6 0.0
26/10:00am -2.5 -9.9 -3.6 92 0.3 WNW 26 33 14 18 1020.0 1022.3 0.0
26/09:30am -2.8 -10.6 -3.8 93 0.2 WNW 28 39 15 21 1019.7 1022.1 0.0
26/09:00am -2.8 -11.4 -3.8 93 0.2 WNW 32 39 17 21 1019.0 1021.3 0.0
26/08:30am -3.3 -11.2 -4.4 92 0.2 WNW 28 39 15 21 1018.5 1020.8 0.0
26/08:00am -3.3 -11.5 -4.4 92 0.2 WNW 30 41 16 22 1018.2 1020.4 0.0
26/07:30am -3.4 -12.0 -4.5 92 0.2 WNW 32 43 17 23 1017.6 1019.8 0.0
26/07:00am -3.1 -11.3 -4.1 93 0.2 W 30 41 16 22 1017.6 1019.8 0.0
26/06:30am -3.4 -11.7 -4.5 92 0.2 W 30 41 16 22 1017.3 1019.5 0.0
26/06:00am -3.1 -12.3 -4.1 93 0.2 WNW 35 46 19 25 1016.4 1018.5 0.0
26/05:30am -3.1 -12.6 -4.1 93 0.2 W 37 48 20 26 1016.2 1018.4 0.0
26/05:00am -3.0 -11.6 -4.0 93 0.2 W 32 44 17 24 1016.2 1018.4 0.0
26/04:30am -3.1 -11.7 -4.1 93 0.2 W 32 43 17 23 1016.1 1018.2 0.0
26/04:00am -3.2 -11.1 -4.3 92 0.2 W 28 37 15 20 1015.7 1017.9 0.0
26/03:30am -3.3 -11.5 -4.4 92 0.2 W 30 39 16 21 1015.7 1017.9 0.0
26/03:00am -3.2 -12.0 -4.2 93 0.2 WNW 33 43 18 23 1015.4 1017.5 0.0
26/02:30am -3.0 -11.8 -4.0 93 0.2 W 33 46 18 25 1015.6 1017.7 0.0
26/02:15am -2.9 -12.4 -3.9 93 0.2 WNW 37 56 20 30 1015.4 1017.5 0.0
26/02:00am -2.9 -12.8 -3.9 93 0.2 WNW 39 50 21 27 1015.1 1017.2 0.0
26/01:30am -2.8 -11.9 -3.8 93 0.2 WNW 35 48 19 26 1014.9 1017.0 0.0
26/01:00am -2.5 -12.7 -3.5 93 0.2 WNW 41 54 22 29 1014.4 1016.5 0.0
26/12:30am -2.4 -11.5 -3.4 93 0.3 WNW 35 46 19 25 1014.9 1017.0 0.0
26/12:10am -2.4 -12.6 -3.4 93 0.3 NW 41 59 22 32 1014.3 1016.3 0.0
26/12:00am -2.4 -12.2 -3.4 93 0.3 WNW 39 56 21 30 1014.7 1016.7 0.0
 
Date/Time
EST
Temp
°C
App
Temp
°C
Dew
Point
°C
Rel
Hum
%
Delta-T
°C
Wind Press
QNH
hPa
Press
MSL
hPa
Rain since
9am
mm
Dir  Spd
km/h
Gust
km/h
Spd
kts
Gust
kts
25/11:30pm -2.6 -13.8 -3.6 93 0.2 WNW 46 57 25 31 1014.9 1017.0 0.0
25/11:00pm -2.8 -11.9 -3.8 93 0.2 WNW 35 52 19 28 1015.0 1017.1 0.0
25/10:35pm -2.8 -11.5 -3.8 93 0.2 WNW 33 52 18 28 1015.7 1017.9 0.0
25/10:30pm -2.8 -11.9 -3.8 93 0.2 WNW 35 52 19 28 1015.7 1017.9 0.0
25/10:01pm -3.1 -12.6 -4.1 93 0.2 WNW 37 56 20 30 1015.1 1017.2 0.0
25/10:00pm -3.1 -13.0 -4.1 93 0.2 WNW 39 56 21 30 1015.1 1017.2 0.0
25/09:30pm -3.2 -14.1 -4.2 93 0.2 WNW 44 59 24 32 1014.8 1016.8 0.0
25/09:16pm -3.2 -13.5 -4.2 93 0.2 WNW 41 59 22 32 1014.3 1016.3 0.0
25/09:00pm -3.3 -14.0 -4.4 92 0.2 WNW 43 59 23 32 1014.5 1016.6 0.0
25/08:56pm -3.4 -14.1 -4.5 92 0.2 NW 43 61 23 33 1014.8 1016.8 0.0
25/08:30pm -3.7 -15.4 -4.8 92 0.2 NW 48 61 26 33 1014.4 1016.5 0.0
25/08:20pm -3.7 -15.0 -4.8 92 0.2 NW 46 67 25 36 1014.3 1016.3 0.0
25/08:00pm -3.5 -14.2 -4.6 92 0.2 WNW 43 57 23 31 1014.4 1016.5 0.0
25/07:30pm -3.8 -15.5 -4.9 92 0.2 WNW 48 69 26 37 1014.5 1016.6 0.0
25/07:00pm -4.0 -17.8 -5.1 92 0.2 NW 59 82 32 44 - - 0.0
25/06:30pm -3.6 -15.7 -4.7 92 0.2 WNW 50 72 27 39 - - 0.0
25/06:05pm -3.5 -14.4 -4.6 92 0.2 WNW 44 67 24 36 - - 0.0
25/06:00pm -3.5 -14.4 -4.6 92 0.2 WNW 44 61 24 33 - - 0.0
25/05:45pm -3.1 -16.3 -4.1 93 0.2 WNW 56 74 30 40 - - 0.0
25/05:37pm -3.2 -13.9 -4.2 93 0.2 NW 43 69 23 37 - - 0.0
25/05:35pm -3.1 -13.0 -4.1 93 0.2 NW 39 69 21 37 - - 0.0
25/05:30pm -2.9 -13.2 -3.9 93 0.2 NW 41 56 22 30 - - 0.0
25/05:00pm -2.9 -12.0 -3.9 93 0.2 NW 35 44 19 24 - - 0.0
25/04:30pm -2.6 -13.8 -3.6 93 0.2 NW 46 65 25 35 - - 0.0
25/04:01pm -2.7 -15.8 -3.7 93 0.2 NW 56 74 30 40 - - 0.0
25/04:00pm -2.7 -16.0 -3.7 93 0.2 NW 57 74 31 40 - - 0.0
25/03:34pm -2.7 -13.5 -3.7 93 0.2 WNW 44 63 24 34 - - 0.0
25/03:30pm -2.6 -14.2 -3.6 93 0.2 WNW 48 63 26 34 - - 0.0
25/03:10pm -2.7 -13.3 -3.7 93 0.2 WNW 43 63 23 34 - - 0.0
25/03:00pm -2.7 -14.3 -3.7 93 0.2 NW 48 63 26 34 - - 0.0
25/02:37pm -2.9 -14.5 -3.9 93 0.2 NW 48 70 26 38 - - 0.0
25/02:30pm -3.1 -15.9 -4.1 93 0.2 NW 54 69 29 37 - - 0.0
25/02:00pm -3.2 -15.6 -4.2 93 0.2 WNW 52 70 28 38 - - 0.0
25/01:30pm -3.3 -14.0 -4.6 91 0.3 WNW 43 61 23 33 - - 0.0
25/01:00pm -3.7 -15.8 -5.2 89 0.4 WNW 50 72 27 39 - - 0.0
25/12:50pm -3.8 -16.3 -5.3 89 0.3 WNW 52 74 28 40 - - 0.0
25/12:46pm -3.8 -16.7 -5.3 89 0.3 WNW 54 72 29 39 - - 0.0
25/12:30pm -3.9 -18.9 -5.4 89 0.3 NW 65 93 35 50 - - 0.0
25/12:24pm -3.9 -18.5 -5.4 89 0.3 WNW 63 93 34 50 - - 0.0
25/12:00pm -3.9 -16.0 -5.3 90 0.3 WNW 50 74 27 40 - - 0.0
25/11:30am -4.2 -18.5 -5.6 90 0.3 WNW 61 82 33 44 - - 0.0
25/11:00am -4.4 -20.2 -5.8 90 0.3 NW 69 89 37 48 - - 0.0
25/10:30am -4.4 -17.9 -5.8 90 0.3 WNW 57 80 31 43 - - 0.0
25/10:00am -4.5 -17.8 -5.9 90 0.3 WNW 56 74 30 40 - - 0.0
25/09:30am -4.7 -18.6 -6.1 90 0.3 WNW 59 78 32 42 - - 0.0
25/09:01am -5.1 -17.0 -6.5 90 0.2 WNW 48 69 26 37 - - 0.0
25/09:00am -5.1 -17.0 -6.5 90 0.2 WNW 48 65 26 35 - - 0.0
25/08:46am -5.5 -16.7 -6.9 90 0.2 WNW 44 63 24 34 - - 0.0
25/08:30am -5.8 -17.4 -7.2 90 0.2 WNW 46 63 25 34 - - 0.0
25/08:22am -5.8 -17.7 -7.2 90 0.2 NW 48 67 26 36 - - 0.0
25/08:00am -6.4 -17.6 -7.9 89 0.2 NW 44 57 24 31 - - 0.0
25/07:39am -6.8 -18.5 -8.3 89 0.2 NW 46 65 25 35 - - 0.0
25/07:30am -6.6 -19.0 -8.1 89 0.2 NNW 50 63 27 34 - - 0.0
25/07:00am -6.4 -17.6 -7.8 90 0.2 NW 44 56 24 30 - - 0.0
25/06:30am -6.9 -19.3 -8.5 88 0.2 NW 50 59 27 32 - - 0.0
25/06:00am -7.1 -18.4 -9.0 86 0.3 NW 44 54 24 29 - - 0.0
25/05:30am -6.4 -16.5 -10.9 70 1.0 NW 37 46 20 25 - - 0.0
25/05:00am -6.1 -16.6 -10.3 72 1.0 NW 39 46 21 25 - - 0.0
25/04:30am -6.1 -17.3 -9.3 78 0.7 NW 43 54 23 29 - - 0.0
25/04:00am -5.0 -16.0 -12.2 57 1.8 NW 41 48 22 26 - - 0.0
25/03:30am -5.0 -16.3 -10.9 63 1.5 NW 43 50 23 27 - - 0.0
25/03:00am -4.9 -15.5 -11.7 59 1.7 NW 39 46 21 25 - - 0.0
25/02:30am -4.8 -15.1 -12.9 53 2.0 NW 37 46 20 25 - - 0.0
25/02:00am -4.9 -15.5 -11.9 58 1.8 NW 39 46 21 25 - - 0.0
25/01:30am -5.0 -15.5 -11.1 62 1.6 NW 39 46 21 25 - - 0.0
25/01:00am -4.9 -15.0 -10.6 64 1.5 NW 37 44 20 24 - - 0.0
25/12:30am -5.5 -15.1 -9.0 76 0.8 WNW 35 41 19 22 - - 0.0
25/12:00am -5.7 -16.0 -8.0 84 0.5 WNW 39 44 21 24 - - 0.0
 
Date/Time
EST
Temp
°C
App
Temp
°C
Dew
Point
°C
Rel
Hum
%
Delta-T
°C
Wind Press
QNH
hPa
Press
MSL
hPa
Rain since
9am
mm
Dir  Spd
km/h
Gust
km/h
Spd
kts
Gust
kts
24/11:30pm -5.5 -16.7 -7.5 86 0.4 NW 44 50 24 27 - - 0.0
24/11:00pm -5.3 -16.5 -7.3 86 0.4 WNW 44 50 24 27 - - 0.0
24/10:30pm -5.2 -15.8 -6.7 89 0.3 NW 41 48 22 26 - - 0.0
24/10:00pm -4.8 -14.5 -6.0 91 0.2 NW 37 48 20 26 - - 0.0
24/09:30pm -4.9 -15.5 -6.6 88 0.4 NW 41 52 22 28 - - 0.0
24/09:00pm -4.4 -14.9 -5.9 89 0.3 NW 41 52 22 28 - - 0.0
24/08:30pm -4.3 -14.0 -5.7 90 0.3 NW 37 50 20 27 - - 0.0
24/08:00pm -3.7 -13.3 -4.8 92 0.2 NW 37 48 20 26 - - 0.0
24/07:30pm -4.1 -15.5 -5.5 90 0.3 NW 46 56 25 30 - - 0.0
24/07:00pm -4.0 -14.8 -5.2 91 0.2 NW 43 54 23 29 - - 0.0
24/06:30pm -3.9 -14.7 -5.3 90 0.3 NW 43 54 23 29 - - 0.0
24/06:00pm -3.9 -16.1 -5.6 88 0.4 NNW 50 61 27 33 - - 0.0
24/05:30pm -3.7 -14.7 -5.1 90 0.3 NW 44 56 24 30 - - 0.0
24/05:00pm -3.4 -14.7 -4.7 91 0.3 NW 46 61 25 33 - - 0.0
24/04:30pm -3.4 -15.1 -4.9 89 0.4 NW 48 57 26 31 - - 0.0
24/04:00pm -2.9 -13.8 -4.2 91 0.3 NW 44 57 24 31 - - 0.0
24/03:30pm -2.9 -13.6 -4.3 90 0.4 NW 43 54 23 29 - - 0.0
24/03:11pm -3.0 -14.3 -4.6 89 0.4 NW 46 65 25 35 - - 0.0
24/03:00pm -2.7 -14.3 -4.0 91 0.3 NW 48 61 26 33 - - 0.0
24/02:30pm -2.8 -14.1 -4.4 89 0.4 NW 46 61 25 33 - - 0.0
24/02:00pm -2.6 -13.9 -4.2 89 0.5 NW 46 57 25 31 - - 0.0
24/01:30pm -2.7 -14.3 -4.1 90 0.4 NW 48 59 26 32 - - 0.0
24/01:00pm -2.4 -14.0 -3.8 90 0.4 NW 48 63 26 34 - - 0.0
24/12:41pm -2.4 -14.4 -3.8 90 0.4 NW 50 69 27 37 - - 0.0
24/12:30pm -2.7 -14.7 -4.1 90 0.4 NW 50 61 27 33 - - 0.0
24/12:00pm -2.6 -15.4 -4.0 90 0.4 NW 54 65 29 35 - - 0.0
24/11:30am -2.8 -15.6 -4.2 90 0.4 NW 54 69 29 37 - - 0.0
24/11:00am -2.6 -14.2 -4.0 90 0.4 NW 48 65 26 35 - - 0.0
24/10:30am -2.7 -14.3 -4.1 90 0.4 WNW 48 65 26 35 - - 0.0
24/10:24am -2.8 -14.1 -4.2 90 0.4 WNW 46 65 25 35 - - 0.0
24/10:00am -2.6 -14.2 -4.0 90 0.4 NW 48 63 26 34 - - 0.0
24/09:30am -2.8 -14.4 -4.2 90 0.4 WNW 48 65 26 35 - - 0.0
24/09:29am -2.8 -14.1 -4.2 90 0.4 WNW 46 65 25 35 - - 0.0
24/09:00am -2.5 -13.3 -3.9 90 0.4 WNW 44 59 24 32 - - 0.2
24/08:30am -3.0 -13.9 -4.6 89 0.4 WNW 44 61 24 33 - - 0.2
24/08:00am -3.0 -13.4 -4.6 89 0.4 W 41 59 22 32 - - 0.2
24/07:30am -3.1 -14.1 -4.9 87 0.5 WNW 44 59 24 32 - - 0.2
24/07:07am -2.7 -13.4 -4.6 87 0.6 WNW 43 61 23 33 - - 0.2
24/07:00am -2.7 -13.4 -4.6 87 0.6 WNW 43 57 23 31 - - 0.2
24/06:37am -2.7 -12.7 -4.7 86 0.6 WNW 39 59 21 32 - - 0.2
24/06:30am -2.6 -13.0 -4.6 86 0.6 WNW 41 56 22 30 - - 0.2
24/06:00am -2.6 -13.9 -4.6 86 0.6 WNW 46 65 25 35 - - 0.2
24/05:40am -2.4 -13.1 -4.6 85 0.7 WNW 43 61 23 33 - - 0.2
24/05:30am -2.4 -12.8 -4.7 84 0.7 WNW 41 56 22 30 - - 0.2
24/05:00am -2.5 -13.9 -5.1 82 0.8 WNW 46 65 25 35 - - 0.2
24/04:32am -2.0 -13.7 -4.7 82 0.9 WNW 48 67 26 36 - - 0.2
24/04:30am -2.0 -14.1 -4.7 82 0.9 WNW 50 67 27 36 - - 0.2
24/04:00am -1.6 -13.3 -4.3 82 0.9 WNW 48 72 26 39 - - 0.2
24/03:30am -1.6 -13.6 -4.4 81 0.9 WNW 50 72 27 39 - - 0.2
24/03:01am -1.9 -13.6 -4.6 82 0.9 WNW 48 67 26 36 - - 0.2
24/03:00am -2.0 -14.1 -4.7 82 0.9 WNW 50 67 27 36 - - 0.2
24/02:30am -1.9 -14.4 -5.0 79 1.0 WNW 52 76 28 41 - - 0.2
24/02:00am -1.8 -15.0 -4.9 79 1.0 WNW 56 82 30 44 - - 0.2
24/01:30am -1.6 -12.9 -4.8 79 1.1 WNW 46 70 25 38 - - 0.2
24/01:18am -1.6 -12.5 -4.8 79 1.1 WNW 44 63 24 34 - - 0.2
24/01:03am -1.6 -11.6 -5.1 77 1.2 NW 39 69 21 37 - - 0.2
24/01:00am -1.6 -10.9 -5.3 76 1.2 NW 35 57 19 31 - - 0.2
24/12:35am -1.5 -12.5 -5.2 76 1.2 NW 44 65 24 35 - - 0.0
24/12:30am -1.5 -14.0 -5.3 75 1.3 NW 52 67 28 36 - - 0.0
24/12:00am -1.6 -14.5 -5.6 74 1.3 NW 54 72 29 39 - - 0.0

Latest Capital City Observations: Canberra | Sydney | Melbourne | Brisbane | Adelaide | Perth | Hobart | Darwin

Other Formats:

Comma delimited format used in spreadsheet applications
http://www.bom.gov.au/fwo/IDN60903/IDN60903.95909.axf

JavaScript Object Notation format (JSON) in row-major order
http://www.bom.gov.au/fwo/IDN60903/IDN60903.95909.json